sensor_id;sensor_type;location;lat;lon;timestamp;temperature;humidity
58638;DHT22;54976;51.510;7.522;2023-05-28T00:00:00;13.00;97.60
58638;DHT22;54976;51.510;7.522;2023-05-28T00:03:00;12.90;97.40
58638;DHT22;54976;51.510;7.522;2023-05-28T00:06:02;12.90;97.60
58638;DHT22;54976;51.510;7.522;2023-05-28T00:09:02;12.90;97.70
58638;DHT22;54976;51.510;7.522;2023-05-28T00:12:03;12.90;98.20
58638;DHT22;54976;51.510;7.522;2023-05-28T00:15:06;12.80;98.40
58638;DHT22;54976;51.510;7.522;2023-05-28T00:18:06;12.80;98.60
58638;DHT22;54976;51.510;7.522;2023-05-28T00:21:11;12.70;98.80
58638;DHT22;54976;51.510;7.522;2023-05-28T00:24:12;12.70;98.80
58638;DHT22;54976;51.510;7.522;2023-05-28T00:27:12;12.60;98.60
58638;DHT22;54976;51.510;7.522;2023-05-28T00:30:13;12.60;98.70
58638;DHT22;54976;51.510;7.522;2023-05-28T00:33:14;12.60;98.90
58638;DHT22;54976;51.510;7.522;2023-05-28T00:36:15;12.60;99.20
58638;DHT22;54976;51.510;7.522;2023-05-28T00:39:16;12.50;98.90
58638;DHT22;54976;51.510;7.522;2023-05-28T00:42:17;12.50;99.10
58638;DHT22;54976;51.510;7.522;2023-05-28T00:45:18;12.40;99.30
58638;DHT22;54976;51.510;7.522;2023-05-28T00:48:19;12.40;99.70
58638;DHT22;54976;51.510;7.522;2023-05-28T00:51:20;12.30;99.70
58638;DHT22;54976;51.510;7.522;2023-05-28T00:54:22;12.30;99.70
58638;DHT22;54976;51.510;7.522;2023-05-28T00:57:23;12.30;99.90
58638;DHT22;54976;51.510;7.522;2023-05-28T01:00:25;12.30;99.70
58638;DHT22;54976;51.510;7.522;2023-05-28T01:03:25;12.20;99.90
58638;DHT22;54976;51.510;7.522;2023-05-28T01:06:26;12.10;99.90
58638;DHT22;54976;51.510;7.522;2023-05-28T01:09:29;12.00;99.90
58638;DHT22;54976;51.510;7.522;2023-05-28T01:12:30;12.00;99.90
58638;DHT22;54976;51.510;7.522;2023-05-28T01:15:32;12.00;99.90
58638;DHT22;54976;51.510;7.522;2023-05-28T01:18:33;12.00;99.90
58638;DHT22;54976;51.510;7.522;2023-05-28T01:21:34;11.90;99.90
58638;DHT22;54976;51.510;7.522;2023-05-28T01:24:38;11.90;99.90
58638;DHT22;54976;51.510;7.522;2023-05-28T01:27:39;11.90;99.90
58638;DHT22;54976;51.510;7.522;2023-05-28T01:30:40;11.90;99.90
58638;DHT22;54976;51.510;7.522;2023-05-28T01:33:41;11.80;99.90
58638;DHT22;54976;51.510;7.522;2023-05-28T01:36:55;11.70;99.90
58638;DHT22;54976;51.510;7.522;2023-05-28T01:39:57;11.90;99.90
58638;DHT22;54976;51.510;7.522;2023-05-28T01:42:59;11.70;99.90
58638;DHT22;54976;51.510;7.522;2023-05-28T01:46:01;11.60;99.90
58638;DHT22;54976;51.510;7.522;2023-05-28T01:49:01;11.60;99.90
58638;DHT22;54976;51.510;7.522;2023-05-28T01:52:02;11.60;99.90
58638;DHT22;54976;51.510;7.522;2023-05-28T01:55:04;11.50;99.90
58638;DHT22;54976;51.510;7.522;2023-05-28T01:58:05;11.50;99.90
58638;DHT22;54976;51.510;7.522;2023-05-28T02:01:14;11.40;99.90
58638;DHT22;54976;51.510;7.522;2023-05-28T02:04:16;11.30;99.90
58638;DHT22;54976;51.510;7.522;2023-05-28T02:07:16;11.30;99.90
58638;DHT22;54976;51.510;7.522;2023-05-28T02:10:17;11.30;99.90
58638;DHT22;54976;51.510;7.522;2023-05-28T02:13:17;11.20;99.90
58638;DHT22;54976;51.510;7.522;2023-05-28T02:16:18;11.10;99.90
58638;DHT22;54976;51.510;7.522;2023-05-28T02:19:19;11.10;99.90
58638;DHT22;54976;51.510;7.522;2023-05-28T02:22:20;11.10;99.90
58638;DHT22;54976;51.510;7.522;2023-05-28T02:25:20;11.20;99.90
58638;DHT22;54976;51.510;7.522;2023-05-28T02:28:22;11.10;99.90
58638;DHT22;54976;51.510;7.522;2023-05-28T02:31:23;11.00;99.90
58638;DHT22;54976;51.510;7.522;2023-05-28T02:34:24;11.00;99.90
58638;DHT22;54976;51.510;7.522;2023-05-28T02:37:25;10.90;99.90
58638;DHT22;54976;51.510;7.522;2023-05-28T02:40:26;10.90;99.90
58638;DHT22;54976;51.510;7.522;2023-05-28T02:43:27;10.80;99.90
58638;DHT22;54976;51.510;7.522;2023-05-28T02:46:27;10.80;99.90
58638;DHT22;54976;51.510;7.522;2023-05-28T02:49:28;10.70;99.90
58638;DHT22;54976;51.510;7.522;2023-05-28T02:52:29;10.70;99.90
58638;DHT22;54976;51.510;7.522;2023-05-28T02:55:29;10.70;99.90
58638;DHT22;54976;51.510;7.522;2023-05-28T02:58:30;10.70;99.90
58638;DHT22;54976;51.510;7.522;2023-05-28T03:01:30;10.70;99.90
58638;DHT22;54976;51.510;7.522;2023-05-28T03:04:31;10.70;99.90
58638;DHT22;54976;51.510;7.522;2023-05-28T03:07:32;10.70;99.90
58638;DHT22;54976;51.510;7.522;2023-05-28T03:10:32;10.60;99.90
58638;DHT22;54976;51.510;7.522;2023-05-28T03:13:33;10.60;99.90
58638;DHT22;54976;51.510;7.522;2023-05-28T03:16:34;10.60;99.90
58638;DHT22;54976;51.510;7.522;2023-05-28T03:19:36;10.70;99.90
58638;DHT22;54976;51.510;7.522;2023-05-28T03:22:37;10.70;99.90
58638;DHT22;54976;51.510;7.522;2023-05-28T03:25:38;10.60;99.90
58638;DHT22;54976;51.510;7.522;2023-05-28T03:28:39;10.60;99.90
58638;DHT22;54976;51.510;7.522;2023-05-28T03:31:46;10.60;99.90
58638;DHT22;54976;51.510;7.522;2023-05-28T03:34:47;10.50;99.90
58638;DHT22;54976;51.510;7.522;2023-05-28T03:37:47;10.50;99.90
58638;DHT22;54976;51.510;7.522;2023-05-28T03:40:48;10.40;99.90
58638;DHT22;54976;51.510;7.522;2023-05-28T03:43:48;10.50;99.90
58638;DHT22;54976;51.510;7.522;2023-05-28T03:46:49;10.40;99.90
58638;DHT22;54976;51.510;7.522;2023-05-28T03:49:49;10.50;99.90
58638;DHT22;54976;51.510;7.522;2023-05-28T03:52:50;10.40;99.90
58638;DHT22;54976;51.510;7.522;2023-05-28T03:55:51;10.40;99.90
58638;DHT22;54976;51.510;7.522;2023-05-28T03:58:51;10.40;99.90
58638;DHT22;54976;51.510;7.522;2023-05-28T04:01:52;10.40;99.90
58638;DHT22;54976;51.510;7.522;2023-05-28T04:04:53;10.40;99.90
58638;DHT22;54976;51.510;7.522;2023-05-28T04:07:53;10.30;99.90
58638;DHT22;54976;51.510;7.522;2023-05-28T04:10:54;10.30;99.90
58638;DHT22;54976;51.510;7.522;2023-05-28T04:13:54;10.40;99.90
58638;DHT22;54976;51.510;7.522;2023-05-28T04:16:55;10.40;99.90
58638;DHT22;54976;51.510;7.522;2023-05-28T04:19:58;10.50;99.90
58638;DHT22;54976;51.510;7.522;2023-05-28T04:22:58;10.50;99.90
58638;DHT22;54976;51.510;7.522;2023-05-28T04:25:59;10.50;99.90
58638;DHT22;54976;51.510;7.522;2023-05-28T04:29:00;10.50;99.90
58638;DHT22;54976;51.510;7.522;2023-05-28T04:32:00;10.50;99.90
58638;DHT22;54976;51.510;7.522;2023-05-28T04:35:01;10.70;99.90
58638;DHT22;54976;51.510;7.522;2023-05-28T04:38:04;10.60;99.90
58638;DHT22;54976;51.510;7.522;2023-05-28T04:41:04;10.60;99.90
58638;DHT22;54976;51.510;7.522;2023-05-28T04:44:05;10.70;99.90
58638;DHT22;54976;51.510;7.522;2023-05-28T04:47:07;10.70;99.90
58638;DHT22;54976;51.510;7.522;2023-05-28T04:50:09;10.70;99.90
58638;DHT22;54976;51.510;7.522;2023-05-28T04:53:10;10.70;99.90
58638;DHT22;54976;51.510;7.522;2023-05-28T04:56:10;10.80;99.90
58638;DHT22;54976;51.510;7.522;2023-05-28T04:59:11;10.80;99.90
58638;DHT22;54976;51.510;7.522;2023-05-28T05:02:11;10.90;99.90
58638;DHT22;54976;51.510;7.522;2023-05-28T05:05:13;11.00;99.90
58638;DHT22;54976;51.510;7.522;2023-05-28T05:08:14;11.10;99.90
58638;DHT22;54976;51.510;7.522;2023-05-28T05:11:15;11.10;99.90
58638;DHT22;54976;51.510;7.522;2023-05-28T05:14:15;11.20;99.90
58638;DHT22;54976;51.510;7.522;2023-05-28T05:17:16;11.30;99.90
58638;DHT22;54976;51.510;7.522;2023-05-28T05:20:17;11.40;99.90
58638;DHT22;54976;51.510;7.522;2023-05-28T05:23:18;11.50;99.90
58638;DHT22;54976;51.510;7.522;2023-05-28T05:26:18;11.60;99.90
58638;DHT22;54976;51.510;7.522;2023-05-28T05:29:19;11.70;99.90
58638;DHT22;54976;51.510;7.522;2023-05-28T05:32:20;11.90;99.90
58638;DHT22;54976;51.510;7.522;2023-05-28T05:35:20;12.20;99.50
58638;DHT22;54976;51.510;7.522;2023-05-28T05:38:21;12.70;99.30
58638;DHT22;54976;51.510;7.522;2023-05-28T05:41:22;13.10;97.90
58638;DHT22;54976;51.510;7.522;2023-05-28T05:44:22;13.30;96.90
58638;DHT22;54976;51.510;7.522;2023-05-28T05:47:23;13.60;96.90
58638;DHT22;54976;51.510;7.522;2023-05-28T05:50:23;13.90;96.00
58638;DHT22;54976;51.510;7.522;2023-05-28T05:53:24;14.20;95.20
58638;DHT22;54976;51.510;7.522;2023-05-28T05:56:25;14.50;94.30
58638;DHT22;54976;51.510;7.522;2023-05-28T05:59:26;14.60;95.00
58638;DHT22;54976;51.510;7.522;2023-05-28T06:02:26;14.70;92.80
58638;DHT22;54976;51.510;7.522;2023-05-28T06:05:27;14.60;92.00
58638;DHT22;54976;51.510;7.522;2023-05-28T06:08:27;14.50;91.60
58638;DHT22;54976;51.510;7.522;2023-05-28T06:11:28;14.50;91.90
58638;DHT22;54976;51.510;7.522;2023-05-28T06:14:29;14.40;91.70
58638;DHT22;54976;51.510;7.522;2023-05-28T06:17:29;14.50;92.00
58638;DHT22;54976;51.510;7.522;2023-05-28T06:20:30;14.40;92.40
58638;DHT22;54976;51.510;7.522;2023-05-28T06:23:31;14.50;93.10
58638;DHT22;54976;51.510;7.522;2023-05-28T06:26:32;14.40;92.30
58638;DHT22;54976;51.510;7.522;2023-05-28T06:29:32;14.50;92.60
58638;DHT22;54976;51.510;7.522;2023-05-28T06:32:33;14.70;92.00
58638;DHT22;54976;51.510;7.522;2023-05-28T06:35:34;14.80;91.90
58638;DHT22;54976;51.510;7.522;2023-05-28T06:38:36;14.90;91.60
58638;DHT22;54976;51.510;7.522;2023-05-28T06:41:36;15.10;91.50
58638;DHT22;54976;51.510;7.522;2023-05-28T06:44:37;15.40;91.20
58638;DHT22;54976;51.510;7.522;2023-05-28T06:47:37;15.60;90.40
58638;DHT22;54976;51.510;7.522;2023-05-28T06:50:38;15.90;90.60
58638;DHT22;54976;51.510;7.522;2023-05-28T06:53:39;16.00;89.10
58638;DHT22;54976;51.510;7.522;2023-05-28T06:56:39;16.30;88.30
58638;DHT22;54976;51.510;7.522;2023-05-28T06:59:40;16.50;85.00
58638;DHT22;54976;51.510;7.522;2023-05-28T07:02:40;16.70;87.00
58638;DHT22;54976;51.510;7.522;2023-05-28T07:05:41;17.10;82.00
58638;DHT22;54976;51.510;7.522;2023-05-28T07:08:42;17.60;80.70
58638;DHT22;54976;51.510;7.522;2023-05-28T07:11:45;18.00;78.70
58638;DHT22;54976;51.510;7.522;2023-05-28T07:14:45;18.60;74.30
58638;DHT22;54976;51.510;7.522;2023-05-28T07:17:46;19.10;75.80
58638;DHT22;54976;51.510;7.522;2023-05-28T07:20:46;19.70;72.50
58638;DHT22;54976;51.510;7.522;2023-05-28T07:23:47;20.10;63.10
58638;DHT22;54976;51.510;7.522;2023-05-28T07:26:48;20.20;62.20
58638;DHT22;54976;51.510;7.522;2023-05-28T07:29:49;20.40;60.00
58638;DHT22;54976;51.510;7.522;2023-05-28T07:32:50;20.60;59.80
58638;DHT22;54976;51.510;7.522;2023-05-28T07:35:50;21.00;62.00
58638;DHT22;54976;51.510;7.522;2023-05-28T07:38:51;21.60;57.80
58638;DHT22;54976;51.510;7.522;2023-05-28T07:41:52;21.70;56.90
58638;DHT22;54976;51.510;7.522;2023-05-28T07:44:52;21.60;55.10
58638;DHT22;54976;51.510;7.522;2023-05-28T07:47:53;21.50;55.10
58638;DHT22;54976;51.510;7.522;2023-05-28T07:50:53;21.30;55.30
58638;DHT22;54976;51.510;7.522;2023-05-28T07:53:54;21.60;55.80
58638;DHT22;54976;51.510;7.522;2023-05-28T07:56:54;22.30;55.50
58638;DHT22;54976;51.510;7.522;2023-05-28T07:59:55;22.90;52.30
58638;DHT22;54976;51.510;7.522;2023-05-28T08:02:56;23.00;50.60
58638;DHT22;54976;51.510;7.522;2023-05-28T08:05:56;23.10;51.80
58638;DHT22;54976;51.510;7.522;2023-05-28T08:08:57;23.30;51.20
58638;DHT22;54976;51.510;7.522;2023-05-28T08:11:59;23.30;51.40
58638;DHT22;54976;51.510;7.522;2023-05-28T08:15:02;23.60;50.10
58638;DHT22;54976;51.510;7.522;2023-05-28T08:18:04;23.60;48.30
58638;DHT22;54976;51.510;7.522;2023-05-28T08:21:05;23.60;48.30
58638;DHT22;54976;51.510;7.522;2023-05-28T08:24:07;23.90;49.30
58638;DHT22;54976;51.510;7.522;2023-05-28T08:27:10;23.70;48.00
58638;DHT22;54976;51.510;7.522;2023-05-28T08:30:11;23.60;48.10
58638;DHT22;54976;51.510;7.522;2023-05-28T08:33:12;23.90;48.60
58638;DHT22;54976;51.510;7.522;2023-05-28T08:36:12;23.80;47.10
58638;DHT22;54976;51.510;7.522;2023-05-28T08:39:13;23.40;47.40
58638;DHT22;54976;51.510;7.522;2023-05-28T08:42:14;23.00;50.20
58638;DHT22;54976;51.510;7.522;2023-05-28T08:45:14;22.60;49.30
58638;DHT22;54976;51.510;7.522;2023-05-28T08:48:15;22.50;49.10
58638;DHT22;54976;51.510;7.522;2023-05-28T08:51:17;22.80;48.60
58638;DHT22;54976;51.510;7.522;2023-05-28T08:54:19;23.20;49.40
58638;DHT22;54976;51.510;7.522;2023-05-28T08:57:21;23.50;47.00
58638;DHT22;54976;51.510;7.522;2023-05-28T09:00:22;23.60;46.90
58638;DHT22;54976;51.510;7.522;2023-05-28T09:03:23;23.90;48.30
58638;DHT22;54976;51.510;7.522;2023-05-28T09:06:23;24.30;45.70
58638;DHT22;54976;51.510;7.522;2023-05-28T09:09:25;24.20;45.90
58638;DHT22;54976;51.510;7.522;2023-05-28T09:12:27;24.20;46.50
58638;DHT22;54976;51.510;7.522;2023-05-28T09:15:28;23.80;46.30
58638;DHT22;54976;51.510;7.522;2023-05-28T09:18:32;23.20;46.70
58638;DHT22;54976;51.510;7.522;2023-05-28T09:21:33;23.30;48.40
58638;DHT22;54976;51.510;7.522;2023-05-28T09:24:34;23.20;48.40
58638;DHT22;54976;51.510;7.522;2023-05-28T09:27:35;23.10;47.50
58638;DHT22;54976;51.510;7.522;2023-05-28T09:30:36;23.00;47.90
58638;DHT22;54976;51.510;7.522;2023-05-28T09:33:42;22.80;47.80
58638;DHT22;54976;51.510;7.522;2023-05-28T09:36:43;23.00;48.10
58638;DHT22;54976;51.510;7.522;2023-05-28T09:39:44;23.50;46.70
58638;DHT22;54976;51.510;7.522;2023-05-28T09:42:44;23.90;46.40
58638;DHT22;54976;51.510;7.522;2023-05-28T09:45:45;24.80;47.00
58638;DHT22;54976;51.510;7.522;2023-05-28T09:48:46;25.20;44.00
58638;DHT22;54976;51.510;7.522;2023-05-28T09:51:47;26.00;43.60
58638;DHT22;54976;51.510;7.522;2023-05-28T09:54:52;25.70;40.60
58638;DHT22;54976;51.510;7.522;2023-05-28T10:01:11;25.20;41.50
58638;DHT22;54976;51.510;7.522;2023-05-28T10:04:14;25.10;41.60
58638;DHT22;54976;51.510;7.522;2023-05-28T10:07:17;25.20;42.50
58638;DHT22;54976;51.510;7.522;2023-05-28T10:10:19;24.50;40.60
58638;DHT22;54976;51.510;7.522;2023-05-28T10:13:22;24.40;41.90
58638;DHT22;54976;51.510;7.522;2023-05-28T10:16:23;24.50;41.20
58638;DHT22;54976;51.510;7.522;2023-05-28T10:19:25;24.30;40.20
58638;DHT22;54976;51.510;7.522;2023-05-28T10:22:27;24.30;41.50
58638;DHT22;54976;51.510;7.522;2023-05-28T10:25:28;24.20;41.60
58638;DHT22;54976;51.510;7.522;2023-05-28T10:28:29;24.20;42.20
58638;DHT22;54976;51.510;7.522;2023-05-28T10:31:30;24.10;41.60
58638;DHT22;54976;51.510;7.522;2023-05-28T10:34:31;23.80;40.60
58638;DHT22;54976;51.510;7.522;2023-05-28T10:37:34;23.50;42.30
58638;DHT22;54976;51.510;7.522;2023-05-28T10:40:39;23.30;43.10
58638;DHT22;54976;51.510;7.522;2023-05-28T10:46:41;22.90;43.00
58638;DHT22;54976;51.510;7.522;2023-05-28T10:50:02;22.70;42.60
58638;DHT22;54976;51.510;7.522;2023-05-28T10:53:10;22.50;43.30
58638;DHT22;54976;51.510;7.522;2023-05-28T10:56:11;22.40;41.90
58638;DHT22;54976;51.510;7.522;2023-05-28T10:59:15;22.20;42.50
58638;DHT22;54976;51.510;7.522;2023-05-28T11:05:24;22.30;42.30
58638;DHT22;54976;51.510;7.522;2023-05-28T11:08:25;22.30;42.10
58638;DHT22;54976;51.510;7.522;2023-05-28T11:11:26;22.20;41.60
58638;DHT22;54976;51.510;7.522;2023-05-28T11:14:37;22.10;43.70
58638;DHT22;54976;51.510;7.522;2023-05-28T11:17:40;22.40;43.90
58638;DHT22;54976;51.510;7.522;2023-05-28T11:20:40;22.50;41.90
58638;DHT22;54976;51.510;7.522;2023-05-28T11:23:41;22.40;42.90
58638;DHT22;54976;51.510;7.522;2023-05-28T11:26:41;22.60;42.50
58638;DHT22;54976;51.510;7.522;2023-05-28T11:29:42;22.60;41.90
58638;DHT22;54976;51.510;7.522;2023-05-28T11:32:44;22.60;41.60
58638;DHT22;54976;51.510;7.522;2023-05-28T11:35:45;22.50;40.80
58638;DHT22;54976;51.510;7.522;2023-05-28T11:39:02;22.60;41.50
58638;DHT22;54976;51.510;7.522;2023-05-28T11:42:03;22.60;40.90
58638;DHT22;54976;51.510;7.522;2023-05-28T11:45:04;22.70;40.80
58638;DHT22;54976;51.510;7.522;2023-05-28T11:48:11;22.60;40.70
58638;DHT22;54976;51.510;7.522;2023-05-28T11:51:13;22.60;40.80
58638;DHT22;54976;51.510;7.522;2023-05-28T11:54:14;22.80;41.30
58638;DHT22;54976;51.510;7.522;2023-05-28T11:57:50;23.00;41.30
58638;DHT22;54976;51.510;7.522;2023-05-28T12:00:55;23.50;40.20
58638;DHT22;54976;51.510;7.522;2023-05-28T12:04:06;23.90;38.80
58638;DHT22;54976;51.510;7.522;2023-05-28T12:07:07;24.20;39.60
58638;DHT22;54976;51.510;7.522;2023-05-28T12:10:12;24.50;38.60
58638;DHT22;54976;51.510;7.522;2023-05-28T12:13:13;25.00;38.50
58638;DHT22;54976;51.510;7.522;2023-05-28T12:16:14;25.10;38.30
58638;DHT22;54976;51.510;7.522;2023-05-28T12:19:15;24.80;38.10
58638;DHT22;54976;51.510;7.522;2023-05-28T12:22:16;24.90;37.20
58638;DHT22;54976;51.510;7.522;2023-05-28T12:25:19;25.10;37.20
58638;DHT22;54976;51.510;7.522;2023-05-28T12:28:20;25.40;37.50
58638;DHT22;54976;51.510;7.522;2023-05-28T12:31:27;26.00;37.60
58638;DHT22;54976;51.510;7.522;2023-05-28T12:34:29;26.20;36.00
58638;DHT22;54976;51.510;7.522;2023-05-28T12:37:29;26.80;36.40
58638;DHT22;54976;51.510;7.522;2023-05-28T12:40:30;27.00;36.00
58638;DHT22;54976;51.510;7.522;2023-05-28T12:43:31;27.30;35.10
58638;DHT22;54976;51.510;7.522;2023-05-28T12:46:31;27.70;35.70
58638;DHT22;54976;51.510;7.522;2023-05-28T12:49:32;28.50;35.90
58638;DHT22;54976;51.510;7.522;2023-05-28T12:52:33;29.10;33.70
58638;DHT22;54976;51.510;7.522;2023-05-28T12:55:36;29.00;33.50
58638;DHT22;54976;51.510;7.522;2023-05-28T12:58:37;28.60;33.80
58638;DHT22;54976;51.510;7.522;2023-05-28T13:01:37;27.90;33.80
58638;DHT22;54976;51.510;7.522;2023-05-28T13:04:38;27.60;34.90
58638;DHT22;54976;51.510;7.522;2023-05-28T13:07:38;28.00;34.90
58638;DHT22;54976;51.510;7.522;2023-05-28T13:10:39;28.30;33.90
58638;DHT22;54976;51.510;7.522;2023-05-28T13:13:40;28.30;33.60
58638;DHT22;54976;51.510;7.522;2023-05-28T13:16:40;28.60;34.30
58638;DHT22;54976;51.510;7.522;2023-05-28T13:19:41;28.90;33.70
58638;DHT22;54976;51.510;7.522;2023-05-28T13:22:42;28.50;34.10
58638;DHT22;54976;51.510;7.522;2023-05-28T13:25:42;28.70;33.50
58638;DHT22;54976;51.510;7.522;2023-05-28T13:28:43;29.30;33.00
58638;DHT22;54976;51.510;7.522;2023-05-28T13:31:43;29.30;32.50
58638;DHT22;54976;51.510;7.522;2023-05-28T13:34:44;29.00;32.40
58638;DHT22;54976;51.510;7.522;2023-05-28T13:37:46;28.30;32.70
58638;DHT22;54976;51.510;7.522;2023-05-28T13:40:46;28.30;34.10
58638;DHT22;54976;51.510;7.522;2023-05-28T13:43:47;28.30;35.80
58638;DHT22;54976;51.510;7.522;2023-05-28T13:46:48;28.90;33.70
58638;DHT22;54976;51.510;7.522;2023-05-28T13:49:48;29.10;33.20
58638;DHT22;54976;51.510;7.522;2023-05-28T13:52:49;29.10;34.60
58638;DHT22;54976;51.510;7.522;2023-05-28T13:55:50;28.90;33.30
58638;DHT22;54976;51.510;7.522;2023-05-28T13:58:51;27.90;35.00
58638;DHT22;54976;51.510;7.522;2023-05-28T14:01:51;28.00;34.80
58638;DHT22;54976;51.510;7.522;2023-05-28T14:04:52;27.80;35.00
58638;DHT22;54976;51.510;7.522;2023-05-28T14:07:52;27.80;35.20
58638;DHT22;54976;51.510;7.522;2023-05-28T14:10:53;27.70;35.80
58638;DHT22;54976;51.510;7.522;2023-05-28T14:13:54;27.40;35.30
58638;DHT22;54976;51.510;7.522;2023-05-28T14:16:54;26.70;36.40
58638;DHT22;54976;51.510;7.522;2023-05-28T14:19:55;26.50;37.00
58638;DHT22;54976;51.510;7.522;2023-05-28T14:22:56;26.20;38.60
58638;DHT22;54976;51.510;7.522;2023-05-28T14:25:56;26.40;37.20
58638;DHT22;54976;51.510;7.522;2023-05-28T14:28:57;26.40;37.60
58638;DHT22;54976;51.510;7.522;2023-05-28T14:31:57;26.30;37.80
58638;DHT22;54976;51.510;7.522;2023-05-28T14:34:59;25.90;37.00
58638;DHT22;54976;51.510;7.522;2023-05-28T14:38:00;25.40;37.10
58638;DHT22;54976;51.510;7.522;2023-05-28T14:41:01;25.20;37.10
58638;DHT22;54976;51.510;7.522;2023-05-28T14:44:01;25.50;37.40
58638;DHT22;54976;51.510;7.522;2023-05-28T14:47:03;25.40;37.50
58638;DHT22;54976;51.510;7.522;2023-05-28T14:50:05;25.50;39.30
58638;DHT22;54976;51.510;7.522;2023-05-28T14:53:06;25.40;40.10
58638;DHT22;54976;51.510;7.522;2023-05-28T14:56:06;25.10;41.20
58638;DHT22;54976;51.510;7.522;2023-05-28T14:59:07;25.20;42.60
58638;DHT22;54976;51.510;7.522;2023-05-28T15:02:08;25.80;40.60
58638;DHT22;54976;51.510;7.522;2023-05-28T15:05:08;26.00;40.60
58638;DHT22;54976;51.510;7.522;2023-05-28T15:08:09;26.40;40.40
58638;DHT22;54976;51.510;7.522;2023-05-28T15:11:13;26.30;40.00
58638;DHT22;54976;51.510;7.522;2023-05-28T15:14:14;26.00;40.40
58638;DHT22;54976;51.510;7.522;2023-05-28T15:17:15;26.00;39.50
58638;DHT22;54976;51.510;7.522;2023-05-28T15:20:16;25.80;40.20
58638;DHT22;54976;51.510;7.522;2023-05-28T15:23:16;25.50;41.30
58638;DHT22;54976;51.510;7.522;2023-05-28T15:26:17;25.60;40.50
58638;DHT22;54976;51.510;7.522;2023-05-28T15:29:18;25.50;40.50
58638;DHT22;54976;51.510;7.522;2023-05-28T15:32:19;25.50;41.60
58638;DHT22;54976;51.510;7.522;2023-05-28T15:35:20;25.70;41.30
58638;DHT22;54976;51.510;7.522;2023-05-28T15:38:21;25.50;40.80
58638;DHT22;54976;51.510;7.522;2023-05-28T15:41:22;25.30;41.40
58638;DHT22;54976;51.510;7.522;2023-05-28T15:44:23;25.20;42.10
58638;DHT22;54976;51.510;7.522;2023-05-28T15:47:23;25.10;41.70
58638;DHT22;54976;51.510;7.522;2023-05-28T15:50:24;24.50;40.60
58638;DHT22;54976;51.510;7.522;2023-05-28T15:53:25;24.10;42.00
58638;DHT22;54976;51.510;7.522;2023-05-28T15:56:29;23.90;43.60
58638;DHT22;54976;51.510;7.522;2023-05-28T15:59:30;23.90;42.90
58638;DHT22;54976;51.510;7.522;2023-05-28T16:02:38;23.90;42.70
58638;DHT22;54976;51.510;7.522;2023-05-28T16:05:42;23.80;43.10
58638;DHT22;54976;51.510;7.522;2023-05-28T16:08:43;23.80;43.00
58638;DHT22;54976;51.510;7.522;2023-05-28T16:11:46;23.80;43.50
58638;DHT22;54976;51.510;7.522;2023-05-28T16:14:47;23.70;43.50
58638;DHT22;54976;51.510;7.522;2023-05-28T16:17:51;23.60;43.60
58638;DHT22;54976;51.510;7.522;2023-05-28T16:20:55;23.70;45.20
58638;DHT22;54976;51.510;7.522;2023-05-28T16:23:55;23.80;44.60
58638;DHT22;54976;51.510;7.522;2023-05-28T16:26:56;23.80;44.20
58638;DHT22;54976;51.510;7.522;2023-05-28T16:29:57;23.70;43.60
58638;DHT22;54976;51.510;7.522;2023-05-28T16:32:58;23.60;43.90
58638;DHT22;54976;51.510;7.522;2023-05-28T16:35:59;23.60;44.50
58638;DHT22;54976;51.510;7.522;2023-05-28T16:39:00;23.60;43.90
58638;DHT22;54976;51.510;7.522;2023-05-28T16:42:00;23.40;43.30
58638;DHT22;54976;51.510;7.522;2023-05-28T16:45:02;23.20;43.90
58638;DHT22;54976;51.510;7.522;2023-05-28T16:48:03;23.00;44.40
58638;DHT22;54976;51.510;7.522;2023-05-28T16:51:04;22.80;44.50
58638;DHT22;54976;51.510;7.522;2023-05-28T16:54:04;22.80;45.40
58638;DHT22;54976;51.510;7.522;2023-05-28T16:57:05;22.80;45.20
58638;DHT22;54976;51.510;7.522;2023-05-28T17:00:07;22.80;45.10
58638;DHT22;54976;51.510;7.522;2023-05-28T17:03:11;22.70;45.30
58638;DHT22;54976;51.510;7.522;2023-05-28T17:06:11;22.70;45.00
58638;DHT22;54976;51.510;7.522;2023-05-28T17:09:12;22.70;45.00
58638;DHT22;54976;51.510;7.522;2023-05-28T17:12:13;22.60;45.70
58638;DHT22;54976;51.510;7.522;2023-05-28T17:15:14;22.60;46.00
58638;DHT22;54976;51.510;7.522;2023-05-28T17:18:15;22.50;46.30
58638;DHT22;54976;51.510;7.522;2023-05-28T17:21:17;22.40;46.10
58638;DHT22;54976;51.510;7.522;2023-05-28T17:24:17;22.40;45.90
58638;DHT22;54976;51.510;7.522;2023-05-28T17:27:18;22.20;46.30
58638;DHT22;54976;51.510;7.522;2023-05-28T17:30:18;22.10;46.20
58638;DHT22;54976;51.510;7.522;2023-05-28T17:33:19;22.00;46.90
58638;DHT22;54976;51.510;7.522;2023-05-28T17:36:20;21.90;46.90
58638;DHT22;54976;51.510;7.522;2023-05-28T17:39:20;21.80;47.10
58638;DHT22;54976;51.510;7.522;2023-05-28T17:42:21;21.80;47.00
58638;DHT22;54976;51.510;7.522;2023-05-28T17:45:22;21.70;47.00
58638;DHT22;54976;51.510;7.522;2023-05-28T17:48:23;21.70;46.60
58638;DHT22;54976;51.510;7.522;2023-05-28T17:51:24;21.70;47.00
58638;DHT22;54976;51.510;7.522;2023-05-28T17:54:24;21.70;47.00
58638;DHT22;54976;51.510;7.522;2023-05-28T17:57:25;21.70;47.30
58638;DHT22;54976;51.510;7.522;2023-05-28T18:00:26;21.70;47.40
58638;DHT22;54976;51.510;7.522;2023-05-28T18:03:26;21.60;46.70
58638;DHT22;54976;51.510;7.522;2023-05-28T18:06:27;21.60;47.30
58638;DHT22;54976;51.510;7.522;2023-05-28T18:09:28;21.50;46.70
58638;DHT22;54976;51.510;7.522;2023-05-28T18:12:28;21.50;46.60
58638;DHT22;54976;51.510;7.522;2023-05-28T18:15:29;21.50;46.90
58638;DHT22;54976;51.510;7.522;2023-05-28T18:18:30;21.40;47.40
58638;DHT22;54976;51.510;7.522;2023-05-28T18:21:31;21.40;47.40
58638;DHT22;54976;51.510;7.522;2023-05-28T18:24:32;21.40;47.80
58638;DHT22;54976;51.510;7.522;2023-05-28T18:27:33;21.40;48.10
58638;DHT22;54976;51.510;7.522;2023-05-28T18:30:33;21.40;48.10
58638;DHT22;54976;51.510;7.522;2023-05-28T18:33:34;21.40;48.50
58638;DHT22;54976;51.510;7.522;2023-05-28T18:36:35;21.30;48.70
58638;DHT22;54976;51.510;7.522;2023-05-28T18:39:36;21.30;49.20
58638;DHT22;54976;51.510;7.522;2023-05-28T18:42:36;21.30;48.80
58638;DHT22;54976;51.510;7.522;2023-05-28T18:45:37;21.20;49.20
58638;DHT22;54976;51.510;7.522;2023-05-28T18:48:37;21.20;49.10
58638;DHT22;54976;51.510;7.522;2023-05-28T18:51:38;21.10;49.30
58638;DHT22;54976;51.510;7.522;2023-05-28T18:54:38;21.00;49.60
58638;DHT22;54976;51.510;7.522;2023-05-28T18:57:40;20.90;49.60
58638;DHT22;54976;51.510;7.522;2023-05-28T19:00:40;20.80;49.90
58638;DHT22;54976;51.510;7.522;2023-05-28T19:03:41;20.80;50.10
58638;DHT22;54976;51.510;7.522;2023-05-28T19:06:42;20.70;50.20
58638;DHT22;54976;51.510;7.522;2023-05-28T19:09:43;20.60;50.70
58638;DHT22;54976;51.510;7.522;2023-05-28T19:12:43;20.50;50.60